createdAt,value
2022-10-11T00:00:26.970Z,83
2022-10-11T00:05:33.093Z,82.5
2022-10-11T00:10:39.209Z,84
2022-10-11T00:15:44.346Z,85
2022-10-11T00:20:50.446Z,86.5
2022-10-11T00:25:56.584Z,87
2022-10-11T00:31:02.653Z,88
2022-10-11T00:36:08.784Z,90.5
2022-10-11T00:41:14.929Z,92.5
2022-10-11T00:46:20.998Z,92.5
2022-10-11T00:51:27.188Z,93.5
2022-10-11T00:56:33.215Z,98
2022-10-11T01:01:39.342Z,98
2022-10-11T01:06:45.466Z,96.5
2022-10-11T01:11:51.569Z,98
2022-10-11T01:16:57.675Z,99.5
2022-10-11T01:22:02.813Z,99.5
2022-10-11T01:27:08.912Z,99.5
2022-10-11T01:32:15.064Z,99.5
2022-10-11T01:37:21.155Z,99.5
2022-10-11T01:42:27.252Z,99.5
2022-10-11T01:47:33.376Z,99.5
2022-10-11T01:52:39.501Z,99.5
2022-10-11T01:57:45.644Z,99.5
2022-10-11T02:02:51.721Z,99.5
2022-10-11T02:07:57.891Z,99.5
2022-10-11T02:13:03.937Z,99.5
2022-10-11T02:23:16.155Z,99.5
2022-10-11T02:28:21.303Z,99.5
2022-10-11T02:33:27.424Z,99.5
2022-10-11T02:38:33.512Z,99.5
2022-10-11T02:43:39.638Z,99.5
2022-10-11T02:48:45.740Z,99.5
2022-10-11T02:53:51.865Z,99.5
2022-10-11T02:58:57.991Z,99.5
2022-10-11T03:04:04.086Z,99.5
2022-10-11T03:09:10.195Z,99.5
2022-10-11T03:14:16.318Z,99.5
2022-10-11T03:19:22.417Z,99.5
2022-10-11T03:24:28.556Z,99.5
2022-10-11T03:29:34.705Z,99.5
2022-10-11T03:34:39.786Z,99.5
2022-10-11T03:39:45.915Z,99.5
2022-10-11T03:44:52.025Z,99.5
2022-10-11T03:49:58.121Z,99.5
2022-10-11T03:55:04.234Z,99.5
2022-10-11T04:00:10.354Z,99.5
2022-10-11T04:05:16.481Z,99.5
2022-10-11T04:10:22.572Z,99.5
2022-10-11T04:15:28.696Z,99.5
2022-10-11T04:20:34.827Z,99.5
2022-10-11T04:25:40.991Z,99.5
2022-10-11T04:30:47.100Z,99.5
2022-10-11T04:35:53.194Z,99.5
2022-10-11T04:40:58.282Z,99.5
2022-10-11T04:46:04.499Z,99.5
2022-10-11T04:51:10.513Z,99.5
2022-10-11T04:56:16.650Z,99.5
2022-10-11T05:01:22.805Z,99.5
2022-10-11T05:06:28.842Z,99.5
2022-10-11T05:11:34.982Z,99.5
2022-10-11T05:16:41.074Z,99.5
2022-10-11T05:21:47.194Z,99.5
2022-10-11T05:26:53.314Z,99.5
2022-10-11T05:31:59.421Z,99.5
2022-10-11T05:37:05.602Z,99.5
2022-10-11T05:42:11.695Z,99.5
2022-10-11T05:47:16.787Z,99.5
2022-10-11T05:52:22.877Z,99.5
2022-10-11T05:57:28.998Z,99.5
2022-10-11T06:02:35.150Z,99.5
2022-10-11T06:07:41.261Z,99.5
2022-10-11T06:12:47.343Z,99.5
2022-10-11T06:17:53.514Z,99.5
2022-10-11T06:22:59.582Z,99.5
2022-10-11T06:28:05.679Z,99.5
2022-10-11T06:33:11.814Z,99.5
2022-10-11T06:38:17.942Z,99.5
2022-10-11T06:43:24.051Z,99.5
2022-10-11T06:48:30.258Z,99.5
2022-10-11T06:53:35.419Z,99.5
2022-10-11T06:58:41.380Z,99.5
2022-10-11T07:03:47.537Z,99.5
2022-10-11T07:08:53.646Z,99.5
2022-10-11T07:13:59.860Z,99.5
2022-10-11T07:19:05.989Z,99.5
2022-10-11T07:24:12.111Z,98
2022-10-11T07:29:18.083Z,97.5
2022-10-11T07:34:24.254Z,95
2022-10-11T07:39:30.318Z,94.5
2022-10-11T07:44:36.546Z,93.5
2022-10-11T07:49:42.608Z,90.5
2022-10-11T07:54:48.708Z,90
2022-10-11T08:04:59.989Z,88
2022-10-11T08:10:06.106Z,87.5
2022-10-11T08:15:12.072Z,84
2022-10-11T08:20:18.284Z,85
2022-10-11T08:25:24.404Z,83
2022-10-11T08:30:30.525Z,78
2022-10-11T08:35:36.672Z,80.5
2022-10-11T08:40:42.777Z,78.5
2022-10-11T08:45:48.889Z,74.5
2022-10-11T08:50:54.860Z,73.5
2022-10-11T08:56:00.962Z,71
2022-10-11T09:01:07.189Z,73
2022-10-11T09:06:12.262Z,70
2022-10-11T09:11:18.318Z,71
2022-10-11T09:16:24.434Z,69
2022-10-11T09:21:30.528Z,68
2022-10-11T09:26:36.769Z,66
2022-10-11T09:31:42.777Z,64
2022-10-11T09:36:48.868Z,64
2022-10-11T09:41:55.013Z,64.5
2022-10-11T09:47:01.102Z,61
2022-10-11T09:52:07.209Z,61
2022-10-11T09:57:13.333Z,59.5
2022-10-11T10:02:19.459Z,54.5
2022-10-11T10:07:25.557Z,58
2022-10-11T10:12:30.678Z,60.5
2022-10-11T10:17:36.795Z,63
2022-10-11T10:22:42.949Z,64
2022-10-11T10:27:49.030Z,64
2022-10-11T10:32:55.177Z,61.5
2022-10-11T10:38:01.237Z,63.5
2022-10-11T10:43:07.362Z,63
2022-10-11T10:48:13.485Z,62
2022-10-11T10:53:19.590Z,64.5
2022-10-11T10:58:25.678Z,64
2022-10-11T11:03:31.793Z,63
2022-10-11T11:08:37.899Z,61.5
2022-10-11T11:13:44.041Z,61
2022-10-11T11:18:49.184Z,60
2022-10-11T11:23:55.254Z,61
2022-10-11T11:29:01.371Z,60
2022-10-11T11:34:07.566Z,62
2022-10-11T11:39:13.582Z,61.5
2022-10-11T11:44:19.712Z,55
2022-10-11T11:49:25.869Z,57.5
2022-10-11T11:54:31.920Z,57.5
2022-10-11T11:59:38.090Z,58.5
2022-10-11T12:04:44.143Z,61
2022-10-11T12:09:50.252Z,59.5
2022-10-11T12:14:56.365Z,63.5
2022-10-11T12:20:02.478Z,63
2022-10-11T12:25:07.598Z,65
2022-10-11T12:30:13.723Z,64
2022-10-11T12:35:19.851Z,64
2022-10-11T12:40:26.041Z,60
2022-10-11T12:45:32.068Z,59
2022-10-11T12:50:38.180Z,60.5
2022-10-11T12:55:43.305Z,58
2022-10-11T13:00:49.419Z,57.5
2022-10-11T13:05:55.519Z,55
2022-10-11T13:11:01.640Z,53
2022-10-11T13:16:07.761Z,56.5
2022-10-11T13:21:13.929Z,56
2022-10-11T13:26:19.955Z,59.5
2022-10-11T13:31:26.087Z,56
2022-10-11T13:36:32.181Z,56.5
2022-10-11T13:41:38.369Z,61.5
2022-10-11T13:46:44.419Z,61
2022-10-11T13:51:50.532Z,60
2022-10-11T13:56:56.686Z,60.5
2022-10-11T14:02:01.771Z,61
2022-10-11T14:07:07.891Z,56
2022-10-11T14:12:13.976Z,56.5
2022-10-11T14:17:20.094Z,60
2022-10-11T14:22:26.246Z,57.5
2022-10-11T14:27:32.319Z,58
2022-10-11T14:32:38.429Z,60.5
2022-10-11T14:37:44.584Z,63
2022-10-11T14:42:50.652Z,68
2022-10-11T14:47:56.810Z,69
2022-10-11T14:53:02.884Z,71.5
2022-10-11T14:58:09.002Z,72.5
2022-10-11T15:03:15.108Z,73.5
2022-10-11T15:08:20.224Z,73.5
2022-10-11T15:13:26.339Z,74.5
2022-10-11T15:18:32.438Z,76
2022-10-11T15:23:38.551Z,78.5
2022-10-11T15:28:44.677Z,80
2022-10-11T15:33:50.776Z,80.5
2022-10-11T15:38:56.899Z,81.5
2022-10-11T15:44:03.010Z,83
2022-10-11T15:49:09.119Z,84
2022-10-11T15:59:21.421Z,88
2022-10-11T16:04:27.479Z,89
2022-10-11T16:09:33.564Z,90
2022-10-11T16:14:38.683Z,90
2022-10-11T16:19:44.876Z,91.5
2022-10-11T16:29:57.063Z,95.5
2022-10-11T16:35:03.188Z,97
2022-10-11T16:40:09.290Z,99.5
2022-10-11T16:45:15.413Z,97
2022-10-11T16:50:21.523Z,99.5
2022-10-11T16:55:27.640Z,98.5
2022-10-11T17:00:33.752Z,99.5
2022-10-11T17:05:39.853Z,99.5
2022-10-11T17:10:45.985Z,99.5
2022-10-11T17:15:52.107Z,99.5
2022-10-11T17:20:57.223Z,99.5
2022-10-11T17:26:03.332Z,99.5
2022-10-11T17:31:09.437Z,99.5
2022-10-11T17:36:15.576Z,99.5
2022-10-11T17:41:21.722Z,99.5
2022-10-11T17:46:27.763Z,99.5
2022-10-11T17:51:33.881Z,99.5
2022-10-11T17:56:40.013Z,99.5
2022-10-11T18:01:46.107Z,99.5
2022-10-11T18:06:52.276Z,99.5
2022-10-11T18:11:58.414Z,99.5
2022-10-11T18:17:04.504Z,99.5
2022-10-11T18:22:10.601Z,99.5
2022-10-11T18:27:15.730Z,99.5
2022-10-11T18:32:21.864Z,99.5
2022-10-11T18:37:27.966Z,99.5
2022-10-11T18:42:34.103Z,99.5
2022-10-11T18:47:40.189Z,99.5
2022-10-11T18:52:46.359Z,99.5
2022-10-11T18:57:52.450Z,99.5
2022-10-11T19:02:58.567Z,99.5
2022-10-11T19:08:04.705Z,99.5
2022-10-11T19:13:10.816Z,99.5
2022-10-11T19:18:16.925Z,99.5
2022-10-11T19:23:23.025Z,99.5
2022-10-11T19:28:29.163Z,99.5
2022-10-11T19:33:34.270Z,99.5
2022-10-11T19:38:40.411Z,99.5
2022-10-11T19:43:46.575Z,99.5
2022-10-11T19:48:52.743Z,99.5
2022-10-11T19:53:58.787Z,99.5
2022-10-11T19:59:04.902Z,99.5
2022-10-11T20:04:11.022Z,99.5
2022-10-11T20:09:17.133Z,99.5
2022-10-11T20:14:23.391Z,99.5
2022-10-11T20:19:29.527Z,99.5
2022-10-11T20:24:35.489Z,99.5
2022-10-11T20:29:41.714Z,99.5
2022-10-11T20:34:47.832Z,99.5
2022-10-11T20:39:52.909Z,99.5
2022-10-11T20:44:59.080Z,99.5
2022-10-11T20:50:05.165Z,99.5
2022-10-11T20:55:11.349Z,99.5
2022-10-11T21:00:17.377Z,99.5
2022-10-11T21:05:23.487Z,99.5
2022-10-11T21:10:29.683Z,99.5
2022-10-11T21:15:35.733Z,99.5
2022-10-11T21:20:41.819Z,99.5
2022-10-11T21:25:48.046Z,99.5
2022-10-11T21:30:54.108Z,99.5
2022-10-11T21:36:00.164Z,99.5
2022-10-11T21:41:06.305Z,99.5
2022-10-11T21:46:11.435Z,99.5
2022-10-11T21:51:17.619Z,99.5
2022-10-11T21:56:23.723Z,99.5
2022-10-11T22:01:29.767Z,99.5
2022-10-11T22:06:35.884Z,99.5
2022-10-11T22:11:42.008Z,99.5
2022-10-11T22:16:48.109Z,99.5
2022-10-11T22:21:54.231Z,99.5
2022-10-11T22:27:00.366Z,99.5
2022-10-11T22:32:06.451Z,99.5
2022-10-11T22:37:12.567Z,99.5
2022-10-11T22:42:18.673Z,99.5
2022-10-11T22:47:24.797Z,99.5
2022-10-11T22:52:29.933Z,99.5
2022-10-11T22:57:36.038Z,99.5
2022-10-11T23:02:42.151Z,99.5
2022-10-11T23:07:48.271Z,99.5
2022-10-11T23:12:54.401Z,99.5
2022-10-11T23:18:00.515Z,99.5
2022-10-11T23:23:06.612Z,99.5
2022-10-11T23:28:12.733Z,99.5
2022-10-11T23:33:18.873Z,99.5
2022-10-11T23:38:24.972Z,99.5
2022-10-11T23:43:31.089Z,99.5
2022-10-11T23:48:37.219Z,99.5
2022-10-11T23:53:43.373Z,99.5
2022-10-11T23:58:48.440Z,99.5
